sensor_id;sensor_type;location;lat;lon;timestamp;temperature;humidity
17066;DHT22;23120;52.336;21.182;2022-07-23T00:02:21;21.60;66.60
17066;DHT22;23120;52.336;21.182;2022-07-23T00:04:47;21.60;66.20
17066;DHT22;23120;52.336;21.182;2022-07-23T00:07:16;21.50;66.00
17066;DHT22;23120;52.336;21.182;2022-07-23T00:09:42;21.50;66.10
17066;DHT22;23120;52.336;21.182;2022-07-23T00:12:09;21.40;66.00
17066;DHT22;23120;52.336;21.182;2022-07-23T00:14:36;21.40;66.50
17066;DHT22;23120;52.336;21.182;2022-07-23T00:17:03;21.40;66.50
17066;DHT22;23120;52.336;21.182;2022-07-23T00:19:30;21.30;66.80
17066;DHT22;23120;52.336;21.182;2022-07-23T00:21:56;21.30;67.20
17066;DHT22;23120;52.336;21.182;2022-07-23T00:24:25;21.30;66.10
17066;DHT22;23120;52.336;21.182;2022-07-23T00:26:51;21.30;66.40
17066;DHT22;23120;52.336;21.182;2022-07-23T00:29:18;21.20;66.00
17066;DHT22;23120;52.336;21.182;2022-07-23T00:31:45;21.20;66.20
17066;DHT22;23120;52.336;21.182;2022-07-23T00:34:12;21.20;65.90
17066;DHT22;23120;52.336;21.182;2022-07-23T00:36:38;21.20;66.10
17066;DHT22;23120;52.336;21.182;2022-07-23T00:39:06;21.10;66.70
17066;DHT22;23120;52.336;21.182;2022-07-23T00:41:34;21.00;67.20
17066;DHT22;23120;52.336;21.182;2022-07-23T00:44:18;21.00;67.10
17066;DHT22;23120;52.336;21.182;2022-07-23T00:46:46;21.00;67.70
17066;DHT22;23120;52.336;21.182;2022-07-23T00:49:14;20.90;67.10
17066;DHT22;23120;52.336;21.182;2022-07-23T00:51:41;20.90;67.40
17066;DHT22;23120;52.336;21.182;2022-07-23T00:54:08;20.80;67.80
17066;DHT22;23120;52.336;21.182;2022-07-23T00:56:36;20.80;67.80
17066;DHT22;23120;52.336;21.182;2022-07-23T00:59:03;20.70;67.70
17066;DHT22;23120;52.336;21.182;2022-07-23T01:01:31;20.70;69.10
17066;DHT22;23120;52.336;21.182;2022-07-23T01:03:58;20.70;68.70
17066;DHT22;23120;52.336;21.182;2022-07-23T01:06:25;20.60;67.90
17066;DHT22;23120;52.336;21.182;2022-07-23T01:08:53;20.60;68.10
17066;DHT22;23120;52.336;21.182;2022-07-23T01:11:21;20.60;68.20
17066;DHT22;23120;52.336;21.182;2022-07-23T01:13:50;20.50;67.40
17066;DHT22;23120;52.336;21.182;2022-07-23T01:16:17;20.50;67.50
17066;DHT22;23120;52.336;21.182;2022-07-23T01:18:44;20.50;67.60
17066;DHT22;23120;52.336;21.182;2022-07-23T01:21:12;20.50;67.80
17066;DHT22;23120;52.336;21.182;2022-07-23T01:23:41;20.40;67.90
17066;DHT22;23120;52.336;21.182;2022-07-23T01:26:08;20.40;67.40
17066;DHT22;23120;52.336;21.182;2022-07-23T01:28:36;20.40;67.50
17066;DHT22;23120;52.336;21.182;2022-07-23T01:31:03;20.30;67.60
17066;DHT22;23120;52.336;21.182;2022-07-23T01:33:34;20.30;68.90
17066;DHT22;23120;52.336;21.182;2022-07-23T01:36:00;20.30;68.90
17066;DHT22;23120;52.336;21.182;2022-07-23T01:38:27;20.10;69.60
17066;DHT22;23120;52.336;21.182;2022-07-23T01:40:55;20.10;69.30
17066;DHT22;23120;52.336;21.182;2022-07-23T01:43:28;20.10;70.50
17066;DHT22;23120;52.336;21.182;2022-07-23T01:45:55;20.00;69.90
17066;DHT22;23120;52.336;21.182;2022-07-23T01:48:25;20.00;69.80
17066;DHT22;23120;52.336;21.182;2022-07-23T01:51:11;20.00;69.70
17066;DHT22;23120;52.336;21.182;2022-07-23T01:53:42;20.00;69.10
17066;DHT22;23120;52.336;21.182;2022-07-23T01:56:10;20.00;69.90
17066;DHT22;23120;52.336;21.182;2022-07-23T01:58:37;19.90;69.70
17066;DHT22;23120;52.336;21.182;2022-07-23T02:01:04;19.90;70.30
17066;DHT22;23120;52.336;21.182;2022-07-23T02:03:31;19.80;70.90
17066;DHT22;23120;52.336;21.182;2022-07-23T02:05:58;19.80;72.10
17066;DHT22;23120;52.336;21.182;2022-07-23T02:08:27;19.80;70.40
17066;DHT22;23120;52.336;21.182;2022-07-23T02:10:54;19.70;70.50
17066;DHT22;23120;52.336;21.182;2022-07-23T02:13:22;19.80;70.90
17066;DHT22;23120;52.336;21.182;2022-07-23T02:15:49;19.70;71.40
17066;DHT22;23120;52.336;21.182;2022-07-23T02:18:16;19.70;72.30
17066;DHT22;23120;52.336;21.182;2022-07-23T02:20:43;19.60;70.70
17066;DHT22;23120;52.336;21.182;2022-07-23T02:23:10;19.60;70.60
17066;DHT22;23120;52.336;21.182;2022-07-23T02:25:37;19.50;69.90
17066;DHT22;23120;52.336;21.182;2022-07-23T02:28:05;19.50;70.80
17066;DHT22;23120;52.336;21.182;2022-07-23T02:30:33;19.50;71.30
17066;DHT22;23120;52.336;21.182;2022-07-23T02:33:00;19.40;72.00
17066;DHT22;23120;52.336;21.182;2022-07-23T02:35:27;19.40;72.00
17066;DHT22;23120;52.336;21.182;2022-07-23T02:37:56;19.30;72.40
17066;DHT22;23120;52.336;21.182;2022-07-23T02:40:23;19.30;73.00
17066;DHT22;23120;52.336;21.182;2022-07-23T02:42:50;19.30;72.00
17066;DHT22;23120;52.336;21.182;2022-07-23T02:45:17;19.30;72.00
17066;DHT22;23120;52.336;21.182;2022-07-23T02:47:45;19.30;71.50
17066;DHT22;23120;52.336;21.182;2022-07-23T02:50:12;19.30;71.50
17066;DHT22;23120;52.336;21.182;2022-07-23T02:52:39;19.30;70.70
17066;DHT22;23120;52.336;21.182;2022-07-23T02:55:07;19.30;71.50
17066;DHT22;23120;52.336;21.182;2022-07-23T02:57:34;19.30;71.50
17066;DHT22;23120;52.336;21.182;2022-07-23T03:00:01;19.30;71.90
17066;DHT22;23120;52.336;21.182;2022-07-23T03:02:27;19.20;70.70
17066;DHT22;23120;52.336;21.182;2022-07-23T03:04:56;19.30;71.30
17066;DHT22;23120;52.336;21.182;2022-07-23T03:07:23;19.20;71.80
17066;DHT22;23120;52.336;21.182;2022-07-23T03:09:51;19.30;71.70
17066;DHT22;23120;52.336;21.182;2022-07-23T03:12:17;19.30;71.70
17066;DHT22;23120;52.336;21.182;2022-07-23T03:14:44;19.30;71.70
17066;DHT22;23120;52.336;21.182;2022-07-23T03:17:11;19.20;71.00
17066;DHT22;23120;52.336;21.182;2022-07-23T03:19:38;19.20;71.50
17066;DHT22;23120;52.336;21.182;2022-07-23T03:22:08;19.20;71.50
17066;DHT22;23120;52.336;21.182;2022-07-23T03:24:34;19.20;71.50
17066;DHT22;23120;52.336;21.182;2022-07-23T03:27:21;19.20;71.70
17066;DHT22;23120;52.336;21.182;2022-07-23T03:29:49;19.20;71.30
17066;DHT22;23120;52.336;21.182;2022-07-23T03:32:16;19.10;71.90
17066;DHT22;23120;52.336;21.182;2022-07-23T03:34:43;19.10;71.80
17066;DHT22;23120;52.336;21.182;2022-07-23T03:37:11;19.10;71.50
17066;DHT22;23120;52.336;21.182;2022-07-23T03:39:38;19.10;72.00
17066;DHT22;23120;52.336;21.182;2022-07-23T03:42:06;19.10;71.90
17066;DHT22;23120;52.336;21.182;2022-07-23T03:44:32;19.10;72.90
17066;DHT22;23120;52.336;21.182;2022-07-23T03:47:01;19.10;72.50
17066;DHT22;23120;52.336;21.182;2022-07-23T03:49:28;19.00;72.50
17066;DHT22;23120;52.336;21.182;2022-07-23T03:51:55;19.10;72.70
17066;DHT22;23120;52.336;21.182;2022-07-23T03:54:23;19.10;72.60
17066;DHT22;23120;52.336;21.182;2022-07-23T03:56:50;19.10;72.20
17066;DHT22;23120;52.336;21.182;2022-07-23T03:59:17;19.10;71.80
17066;DHT22;23120;52.336;21.182;2022-07-23T04:01:44;19.10;72.30
17066;DHT22;23120;52.336;21.182;2022-07-23T04:04:11;19.10;71.90
17066;DHT22;23120;52.336;21.182;2022-07-23T04:06:40;19.20;71.80
17066;DHT22;23120;52.336;21.182;2022-07-23T04:09:06;19.20;71.90
17066;DHT22;23120;52.336;21.182;2022-07-23T04:11:35;19.20;72.00
17066;DHT22;23120;52.336;21.182;2022-07-23T04:14:02;19.20;72.10
17066;DHT22;23120;52.336;21.182;2022-07-23T04:16:29;19.30;72.70
17066;DHT22;23120;52.336;21.182;2022-07-23T04:18:56;19.30;72.50
17066;DHT22;23120;52.336;21.182;2022-07-23T04:21:24;19.30;72.40
17066;DHT22;23120;52.336;21.182;2022-07-23T04:23:51;19.40;72.90
17066;DHT22;23120;52.336;21.182;2022-07-23T04:26:19;19.40;74.30
17066;DHT22;23120;52.336;21.182;2022-07-23T04:28:48;19.40;74.00
17066;DHT22;23120;52.336;21.182;2022-07-23T04:31:15;19.50;74.20
17066;DHT22;23120;52.336;21.182;2022-07-23T04:33:42;19.60;73.90
17066;DHT22;23120;52.336;21.182;2022-07-23T04:36:09;19.60;74.00
17066;DHT22;23120;52.336;21.182;2022-07-23T04:38:36;19.60;75.10
17066;DHT22;23120;52.336;21.182;2022-07-23T04:41:04;19.60;75.00
17066;DHT22;23120;52.336;21.182;2022-07-23T04:43:30;19.70;74.40
17066;DHT22;23120;52.336;21.182;2022-07-23T04:45:59;19.80;74.70
17066;DHT22;23120;52.336;21.182;2022-07-23T04:48:26;19.80;75.90
17066;DHT22;23120;52.336;21.182;2022-07-23T04:51:02;19.90;75.90
17066;DHT22;23120;52.336;21.182;2022-07-23T04:53:29;20.00;75.60
17066;DHT22;23120;52.336;21.182;2022-07-23T04:55:59;20.00;75.70
17066;DHT22;23120;52.336;21.182;2022-07-23T04:58:26;20.10;76.00
17066;DHT22;23120;52.336;21.182;2022-07-23T05:00:53;20.10;76.10
17066;DHT22;23120;52.336;21.182;2022-07-23T05:03:24;20.10;75.00
17066;DHT22;23120;52.336;21.182;2022-07-23T05:05:52;20.20;75.10
17066;DHT22;23120;52.336;21.182;2022-07-23T05:08:19;20.30;74.80
17066;DHT22;23120;52.336;21.182;2022-07-23T05:10:50;20.40;74.70
17066;DHT22;23120;52.336;21.182;2022-07-23T05:13:18;20.50;74.40
17066;DHT22;23120;52.336;21.182;2022-07-23T05:15:45;20.70;76.20
17066;DHT22;23120;52.336;21.182;2022-07-23T05:18:12;20.90;76.40
17066;DHT22;23120;52.336;21.182;2022-07-23T05:20:41;21.00;75.90
17066;DHT22;23120;52.336;21.182;2022-07-23T05:23:10;21.20;75.70
17066;DHT22;23120;52.336;21.182;2022-07-23T05:25:37;21.40;75.30
17066;DHT22;23120;52.336;21.182;2022-07-23T05:28:04;21.60;74.60
17066;DHT22;23120;52.336;21.182;2022-07-23T05:30:31;21.80;74.50
17066;DHT22;23120;52.336;21.182;2022-07-23T05:33:01;22.00;74.10
17066;DHT22;23120;52.336;21.182;2022-07-23T05:35:27;22.20;73.70
17066;DHT22;23120;52.336;21.182;2022-07-23T05:38:15;22.30;73.10
17066;DHT22;23120;52.336;21.182;2022-07-23T05:40:43;22.50;72.60
17066;DHT22;23120;52.336;21.182;2022-07-23T05:43:10;22.80;72.50
17066;DHT22;23120;52.336;21.182;2022-07-23T05:45:37;23.00;72.60
17066;DHT22;23120;52.336;21.182;2022-07-23T05:48:04;23.30;71.80
17066;DHT22;23120;52.336;21.182;2022-07-23T05:50:37;23.40;70.70
17066;DHT22;23120;52.336;21.182;2022-07-23T05:53:12;23.60;70.60
17066;DHT22;23120;52.336;21.182;2022-07-23T05:55:58;23.80;69.50
17066;DHT22;23120;52.336;21.182;2022-07-23T05:58:25;24.10;69.80
17066;DHT22;23120;52.336;21.182;2022-07-23T06:00:52;24.20;69.90
17066;DHT22;23120;52.336;21.182;2022-07-23T06:03:19;24.50;69.20
17066;DHT22;23120;52.336;21.182;2022-07-23T06:05:46;24.70;68.30
17066;DHT22;23120;52.336;21.182;2022-07-23T06:08:13;24.90;67.50
17066;DHT22;23120;52.336;21.182;2022-07-23T06:10:40;25.00;66.30
17066;DHT22;23120;52.336;21.182;2022-07-23T06:13:08;25.20;66.50
17066;DHT22;23120;52.336;21.182;2022-07-23T06:15:35;25.40;65.90
17066;DHT22;23120;52.336;21.182;2022-07-23T06:18:02;25.50;65.30
17066;DHT22;23120;52.336;21.182;2022-07-23T06:20:29;25.60;65.10
17066;DHT22;23120;52.336;21.182;2022-07-23T06:22:57;25.80;64.10
17066;DHT22;23120;52.336;21.182;2022-07-23T06:25:24;25.90;64.00
17066;DHT22;23120;52.336;21.182;2022-07-23T06:27:51;26.10;63.50
17066;DHT22;23120;52.336;21.182;2022-07-23T06:30:19;26.20;63.40
17066;DHT22;23120;52.336;21.182;2022-07-23T06:32:47;26.30;63.10
17066;DHT22;23120;52.336;21.182;2022-07-23T06:35:15;26.40;62.70
17066;DHT22;23120;52.336;21.182;2022-07-23T06:37:45;26.50;62.40
17066;DHT22;23120;52.336;21.182;2022-07-23T06:40:12;26.70;61.80
17066;DHT22;23120;52.336;21.182;2022-07-23T06:42:40;26.70;61.80
17066;DHT22;23120;52.336;21.182;2022-07-23T06:45:07;26.80;61.10
17066;DHT22;23120;52.336;21.182;2022-07-23T06:47:37;26.90;60.90
17066;DHT22;23120;52.336;21.182;2022-07-23T06:50:06;27.00;60.20
17066;DHT22;23120;52.336;21.182;2022-07-23T06:52:33;27.10;59.60
17066;DHT22;23120;52.336;21.182;2022-07-23T06:55:00;27.20;59.80
17066;DHT22;23120;52.336;21.182;2022-07-23T06:57:27;27.20;58.50
17066;DHT22;23120;52.336;21.182;2022-07-23T06:59:54;27.30;59.30
17066;DHT22;23120;52.336;21.182;2022-07-23T07:02:21;27.40;59.50
17066;DHT22;23120;52.336;21.182;2022-07-23T07:04:49;27.40;58.50
17066;DHT22;23120;52.336;21.182;2022-07-23T07:07:16;27.50;59.50
17066;DHT22;23120;52.336;21.182;2022-07-23T07:09:42;27.50;58.90
17066;DHT22;23120;52.336;21.182;2022-07-23T07:12:12;27.60;58.90
17066;DHT22;23120;52.336;21.182;2022-07-23T07:14:39;27.70;58.90
17066;DHT22;23120;52.336;21.182;2022-07-23T07:17:05;27.80;58.80
17066;DHT22;23120;52.336;21.182;2022-07-23T07:19:32;27.90;58.70
17066;DHT22;23120;52.336;21.182;2022-07-23T07:22:00;28.00;58.60
17066;DHT22;23120;52.336;21.182;2022-07-23T07:24:27;28.10;58.40
17066;DHT22;23120;52.336;21.182;2022-07-23T07:26:54;28.30;58.30
17066;DHT22;23120;52.336;21.182;2022-07-23T07:29:21;28.40;58.50
17066;DHT22;23120;52.336;21.182;2022-07-23T07:31:48;28.50;57.90
17066;DHT22;23120;52.336;21.182;2022-07-23T07:34:14;28.60;57.80
17066;DHT22;23120;52.336;21.182;2022-07-23T07:36:43;28.70;57.80
17066;DHT22;23120;52.336;21.182;2022-07-23T07:39:17;28.70;57.80
17066;DHT22;23120;52.336;21.182;2022-07-23T07:41:45;28.80;57.50
17066;DHT22;23120;52.336;21.182;2022-07-23T07:44:15;28.80;57.60
17066;DHT22;23120;52.336;21.182;2022-07-23T07:46:42;28.90;57.70
17066;DHT22;23120;52.336;21.182;2022-07-23T07:49:09;28.90;57.20
17066;DHT22;23120;52.336;21.182;2022-07-23T07:51:36;28.90;57.00
17066;DHT22;23120;52.336;21.182;2022-07-23T07:54:03;29.10;56.70
17066;DHT22;23120;52.336;21.182;2022-07-23T07:56:31;29.20;57.00
17066;DHT22;23120;52.336;21.182;2022-07-23T07:58:58;29.40;56.60
17066;DHT22;23120;52.336;21.182;2022-07-23T08:01:26;29.50;56.60
17066;DHT22;23120;52.336;21.182;2022-07-23T08:03:55;29.60;56.10
17066;DHT22;23120;52.336;21.182;2022-07-23T08:06:24;29.70;55.50
17066;DHT22;23120;52.336;21.182;2022-07-23T08:08:51;29.60;55.90
17066;DHT22;23120;52.336;21.182;2022-07-23T08:11:20;29.60;55.00
17066;DHT22;23120;52.336;21.182;2022-07-23T08:13:54;29.70;55.20
17066;DHT22;23120;52.336;21.182;2022-07-23T08:16:21;29.80;55.00
17066;DHT22;23120;52.336;21.182;2022-07-23T08:18:51;29.80;53.70
17066;DHT22;23120;52.336;21.182;2022-07-23T08:21:18;29.80;53.60
17066;DHT22;23120;52.336;21.182;2022-07-23T08:23:47;29.90;53.80
17066;DHT22;23120;52.336;21.182;2022-07-23T08:26:14;30.10;53.70
17066;DHT22;23120;52.336;21.182;2022-07-23T08:28:40;30.10;54.10
17066;DHT22;23120;52.336;21.182;2022-07-23T08:31:11;30.20;52.20
17066;DHT22;23120;52.336;21.182;2022-07-23T08:33:38;30.20;52.80
17066;DHT22;23120;52.336;21.182;2022-07-23T08:36:08;30.30;52.50
17066;DHT22;23120;52.336;21.182;2022-07-23T08:38:35;30.40;53.50
17066;DHT22;23120;52.336;21.182;2022-07-23T08:41:07;30.60;52.30
17066;DHT22;23120;52.336;21.182;2022-07-23T08:43:34;30.50;51.40
17066;DHT22;23120;52.336;21.182;2022-07-23T08:46:02;30.60;51.40
17066;DHT22;23120;52.336;21.182;2022-07-23T08:48:37;30.60;51.70
17066;DHT22;23120;52.336;21.182;2022-07-23T08:51:05;30.60;51.10
17066;DHT22;23120;52.336;21.182;2022-07-23T08:53:33;30.70;52.40
17066;DHT22;23120;52.336;21.182;2022-07-23T08:56:02;30.60;52.10
17066;DHT22;23120;52.336;21.182;2022-07-23T08:58:30;30.80;50.80
17066;DHT22;23120;52.336;21.182;2022-07-23T09:00:58;30.80;50.70
17066;DHT22;23120;52.336;21.182;2022-07-23T09:03:29;30.90;50.70
17066;DHT22;23120;52.336;21.182;2022-07-23T09:06:07;30.90;50.80
17066;DHT22;23120;52.336;21.182;2022-07-23T09:08:37;31.10;48.90
17066;DHT22;23120;52.336;21.182;2022-07-23T09:11:08;31.10;50.40
17066;DHT22;23120;52.336;21.182;2022-07-23T09:13:37;31.10;49.80
17066;DHT22;23120;52.336;21.182;2022-07-23T09:16:23;31.10;47.40
17066;DHT22;23120;52.336;21.182;2022-07-23T09:18:54;31.20;48.60
17066;DHT22;23120;52.336;21.182;2022-07-23T09:21:25;31.20;49.20
17066;DHT22;23120;52.336;21.182;2022-07-23T09:23:57;31.40;48.80
17066;DHT22;23120;52.336;21.182;2022-07-23T09:26:30;31.50;48.50
17066;DHT22;23120;52.336;21.182;2022-07-23T09:29:00;31.60;48.30
17066;DHT22;23120;52.336;21.182;2022-07-23T09:31:47;31.60;48.30
17066;DHT22;23120;52.336;21.182;2022-07-23T09:34:35;31.70;48.70
17066;DHT22;23120;52.336;21.182;2022-07-23T09:37:20;31.90;48.10
17066;DHT22;23120;52.336;21.182;2022-07-23T09:39:48;32.00;47.80
17066;DHT22;23120;52.336;21.182;2022-07-23T09:42:20;32.10;47.90
17066;DHT22;23120;52.336;21.182;2022-07-23T09:44:58;32.10;47.30
17066;DHT22;23120;52.336;21.182;2022-07-23T09:47:26;32.20;46.00
17066;DHT22;23120;52.336;21.182;2022-07-23T09:50:10;32.30;44.50
17066;DHT22;23120;52.336;21.182;2022-07-23T09:52:43;32.20;45.70
17066;DHT22;23120;52.336;21.182;2022-07-23T09:55:12;32.40;45.90
17066;DHT22;23120;52.336;21.182;2022-07-23T09:58:05;32.50;44.70
17066;DHT22;23120;52.336;21.182;2022-07-23T10:00:36;32.60;46.60
17066;DHT22;23120;52.336;21.182;2022-07-23T10:03:06;32.60;46.00
17066;DHT22;23120;52.336;21.182;2022-07-23T10:05:48;32.80;43.80
17066;DHT22;23120;52.336;21.182;2022-07-23T10:08:40;32.70;42.30
17066;DHT22;23120;52.336;21.182;2022-07-23T10:11:30;32.90;44.40
17066;DHT22;23120;52.336;21.182;2022-07-23T10:14:07;33.10;44.30
17066;DHT22;23120;52.336;21.182;2022-07-23T10:16:49;33.10;44.80
17066;DHT22;23120;52.336;21.182;2022-07-23T10:19:17;33.20;41.20
17066;DHT22;23120;52.336;21.182;2022-07-23T10:21:47;33.20;43.20
17066;DHT22;23120;52.336;21.182;2022-07-23T10:30:31;33.50;43.40
17066;DHT22;23120;52.336;21.182;2022-07-23T10:33:12;33.60;43.40
17066;DHT22;23120;52.336;21.182;2022-07-23T10:35:47;33.90;42.60
17066;DHT22;23120;52.336;21.182;2022-07-23T10:38:20;34.20;43.00
17066;DHT22;23120;52.336;21.182;2022-07-23T10:40:56;34.20;42.50
17066;DHT22;23120;52.336;21.182;2022-07-23T10:43:23;34.20;41.60
17066;DHT22;23120;52.336;21.182;2022-07-23T10:45:50;34.30;42.60
17066;DHT22;23120;52.336;21.182;2022-07-23T10:48:18;34.50;42.80
17066;DHT22;23120;52.336;21.182;2022-07-23T10:51:07;34.50;44.00
17066;DHT22;23120;52.336;21.182;2022-07-23T10:53:58;34.70;40.70
17066;DHT22;23120;52.336;21.182;2022-07-23T10:59:29;34.50;41.50
17066;DHT22;23120;52.336;21.182;2022-07-23T11:02:20;34.70;41.90
17066;DHT22;23120;52.336;21.182;2022-07-23T11:04:48;34.90;43.00
17066;DHT22;23120;52.336;21.182;2022-07-23T11:07:15;34.90;41.40
17066;DHT22;23120;52.336;21.182;2022-07-23T11:09:43;34.80;41.10
17066;DHT22;23120;52.336;21.182;2022-07-23T11:12:32;34.90;42.10
17066;DHT22;23120;52.336;21.182;2022-07-23T11:15:07;35.10;42.00
17066;DHT22;23120;52.336;21.182;2022-07-23T11:17:36;35.30;40.80
17066;DHT22;23120;52.336;21.182;2022-07-23T11:20:26;35.40;41.40
17066;DHT22;23120;52.336;21.182;2022-07-23T11:22:55;35.30;39.70
17066;DHT22;23120;52.336;21.182;2022-07-23T11:25:33;35.20;41.30
17066;DHT22;23120;52.336;21.182;2022-07-23T11:28:14;35.30;39.90
17066;DHT22;23120;52.336;21.182;2022-07-23T11:30:48;35.30;41.80
17066;DHT22;23120;52.336;21.182;2022-07-23T11:33:20;35.40;40.50
17066;DHT22;23120;52.336;21.182;2022-07-23T11:36:02;35.50;40.40
17066;DHT22;23120;52.336;21.182;2022-07-23T11:38:31;35.70;40.80
17066;DHT22;23120;52.336;21.182;2022-07-23T11:40:59;35.70;39.50
17066;DHT22;23120;52.336;21.182;2022-07-23T11:43:28;35.70;40.30
17066;DHT22;23120;52.336;21.182;2022-07-23T11:46:31;35.60;40.90
17066;DHT22;23120;52.336;21.182;2022-07-23T11:49:01;35.80;40.40
17066;DHT22;23120;52.336;21.182;2022-07-23T11:51:28;36.00;38.80
17066;DHT22;23120;52.336;21.182;2022-07-23T11:54:11;36.10;40.90
17066;DHT22;23120;52.336;21.182;2022-07-23T11:56:55;36.20;39.90
17066;DHT22;23120;52.336;21.182;2022-07-23T11:59:33;36.40;39.40
17066;DHT22;23120;52.336;21.182;2022-07-23T12:02:03;36.40;40.80
17066;DHT22;23120;52.336;21.182;2022-07-23T12:04:55;36.40;37.70
17066;DHT22;23120;52.336;21.182;2022-07-23T12:07:30;36.40;41.00
17066;DHT22;23120;52.336;21.182;2022-07-23T12:10:02;36.50;40.10
17066;DHT22;23120;52.336;21.182;2022-07-23T12:12:38;36.50;38.80
17066;DHT22;23120;52.336;21.182;2022-07-23T12:15:07;36.40;41.30
17066;DHT22;23120;52.336;21.182;2022-07-23T12:17:39;36.50;38.80
17066;DHT22;23120;52.336;21.182;2022-07-23T12:20:12;36.70;38.40
17066;DHT22;23120;52.336;21.182;2022-07-23T12:22:44;36.90;37.80
17066;DHT22;23120;52.336;21.182;2022-07-23T12:25:16;36.80;39.20
17066;DHT22;23120;52.336;21.182;2022-07-23T12:27:43;36.50;39.40
17066;DHT22;23120;52.336;21.182;2022-07-23T12:30:22;36.40;39.20
17066;DHT22;23120;52.336;21.182;2022-07-23T12:32:54;36.30;40.40
17066;DHT22;23120;52.336;21.182;2022-07-23T12:35:22;36.30;39.20
17066;DHT22;23120;52.336;21.182;2022-07-23T12:37:53;36.40;40.60
17066;DHT22;23120;52.336;21.182;2022-07-23T12:40:28;36.60;40.00
17066;DHT22;23120;52.336;21.182;2022-07-23T12:42:58;36.60;40.40
17066;DHT22;23120;52.336;21.182;2022-07-23T12:45:27;36.60;40.30
17066;DHT22;23120;52.336;21.182;2022-07-23T12:48:05;36.60;41.30
17066;DHT22;23120;52.336;21.182;2022-07-23T12:50:51;36.60;39.70
17066;DHT22;23120;52.336;21.182;2022-07-23T12:53:20;36.70;40.90
17066;DHT22;23120;52.336;21.182;2022-07-23T12:55:56;36.90;39.40
17066;DHT22;23120;52.336;21.182;2022-07-23T12:58:24;37.10;39.90
17066;DHT22;23120;52.336;21.182;2022-07-23T13:01:03;37.20;38.50
17066;DHT22;23120;52.336;21.182;2022-07-23T13:03:41;37.40;37.30
17066;DHT22;23120;52.336;21.182;2022-07-23T13:06:11;37.60;39.90
17066;DHT22;23120;52.336;21.182;2022-07-23T13:08:38;37.80;39.30
17066;DHT22;23120;52.336;21.182;2022-07-23T13:11:06;37.80;39.10
17066;DHT22;23120;52.336;21.182;2022-07-23T13:13:36;37.70;38.50
17066;DHT22;23120;52.336;21.182;2022-07-23T13:16:05;37.90;37.60
17066;DHT22;23120;52.336;21.182;2022-07-23T13:18:34;37.90;38.70
17066;DHT22;23120;52.336;21.182;2022-07-23T13:21:05;38.10;38.30
17066;DHT22;23120;52.336;21.182;2022-07-23T13:23:31;38.10;38.50
17066;DHT22;23120;52.336;21.182;2022-07-23T13:25:58;38.20;37.60
17066;DHT22;23120;52.336;21.182;2022-07-23T13:28:42;38.30;38.70
17066;DHT22;23120;52.336;21.182;2022-07-23T13:31:09;38.30;37.40
17066;DHT22;23120;52.336;21.182;2022-07-23T13:33:40;38.30;38.60
17066;DHT22;23120;52.336;21.182;2022-07-23T13:36:16;38.30;39.30
17066;DHT22;23120;52.336;21.182;2022-07-23T13:38:43;38.40;39.00
17066;DHT22;23120;52.336;21.182;2022-07-23T13:41:10;38.40;39.30
17066;DHT22;23120;52.336;21.182;2022-07-23T13:43:49;38.30;38.20
17066;DHT22;23120;52.336;21.182;2022-07-23T13:46:19;38.30;39.40
17066;DHT22;23120;52.336;21.182;2022-07-23T13:48:50;38.20;38.60
17066;DHT22;23120;52.336;21.182;2022-07-23T13:51:18;38.00;38.80
17066;DHT22;23120;52.336;21.182;2022-07-23T13:53:49;37.90;39.70
17066;DHT22;23120;52.336;21.182;2022-07-23T13:56:16;37.90;38.70
17066;DHT22;23120;52.336;21.182;2022-07-23T13:58:43;37.70;38.80
17066;DHT22;23120;52.336;21.182;2022-07-23T14:01:17;37.70;39.70
17066;DHT22;23120;52.336;21.182;2022-07-23T14:03:55;37.60;38.90
17066;DHT22;23120;52.336;21.182;2022-07-23T14:06:23;37.60;39.70
17066;DHT22;23120;52.336;21.182;2022-07-23T14:08:55;37.60;38.40
17066;DHT22;23120;52.336;21.182;2022-07-23T14:11:31;37.50;38.80
17066;DHT22;23120;52.336;21.182;2022-07-23T14:13:59;37.40;38.00
17066;DHT22;23120;52.336;21.182;2022-07-23T14:16:27;37.30;38.30
17066;DHT22;23120;52.336;21.182;2022-07-23T14:18:54;37.20;38.50
17066;DHT22;23120;52.336;21.182;2022-07-23T14:21:21;37.10;38.90
17066;DHT22;23120;52.336;21.182;2022-07-23T14:23:49;37.10;39.80
17066;DHT22;23120;52.336;21.182;2022-07-23T14:26:16;36.90;38.90
17066;DHT22;23120;52.336;21.182;2022-07-23T14:28:45;36.80;39.70
17066;DHT22;23120;52.336;21.182;2022-07-23T14:31:15;36.70;39.40
17066;DHT22;23120;52.336;21.182;2022-07-23T14:33:42;36.50;39.70
17066;DHT22;23120;52.336;21.182;2022-07-23T14:36:11;36.40;40.40
17066;DHT22;23120;52.336;21.182;2022-07-23T14:38:40;36.20;39.90
17066;DHT22;23120;52.336;21.182;2022-07-23T14:41:11;36.00;40.50
17066;DHT22;23120;52.336;21.182;2022-07-23T14:43:38;35.80;39.50
17066;DHT22;23120;52.336;21.182;2022-07-23T14:46:05;35.60;40.70
17066;DHT22;23120;52.336;21.182;2022-07-23T14:48:38;35.50;41.30
17066;DHT22;23120;52.336;21.182;2022-07-23T14:51:32;35.30;41.20
17066;DHT22;23120;52.336;21.182;2022-07-23T14:54:02;35.20;42.40
17066;DHT22;23120;52.336;21.182;2022-07-23T14:56:30;35.00;41.90
17066;DHT22;23120;52.336;21.182;2022-07-23T14:58:59;34.90;42.30
17066;DHT22;23120;52.336;21.182;2022-07-23T15:01:28;34.70;42.40
17066;DHT22;23120;52.336;21.182;2022-07-23T15:03:58;34.40;41.40
17066;DHT22;23120;52.336;21.182;2022-07-23T15:06:27;33.90;43.70
17066;DHT22;23120;52.336;21.182;2022-07-23T15:08:56;33.30;43.10
17066;DHT22;23120;52.336;21.182;2022-07-23T15:11:30;32.70;45.00
17066;DHT22;23120;52.336;21.182;2022-07-23T15:14:00;32.00;46.30
17066;DHT22;23120;52.336;21.182;2022-07-23T15:16:27;31.60;47.10
17066;DHT22;23120;52.336;21.182;2022-07-23T15:18:53;31.30;48.70
17066;DHT22;23120;52.336;21.182;2022-07-23T15:21:20;30.80;53.60
17066;DHT22;23120;52.336;21.182;2022-07-23T15:23:47;29.90;56.90
17066;DHT22;23120;52.336;21.182;2022-07-23T15:26:14;29.00;59.30
17066;DHT22;23120;52.336;21.182;2022-07-23T15:28:42;28.30;61.50
17066;DHT22;23120;52.336;21.182;2022-07-23T15:31:10;27.90;63.60
17066;DHT22;23120;52.336;21.182;2022-07-23T15:33:37;27.30;64.40
17066;DHT22;23120;52.336;21.182;2022-07-23T15:36:05;27.00;65.90
17066;DHT22;23120;52.336;21.182;2022-07-23T15:38:32;26.60;67.00
17066;DHT22;23120;52.336;21.182;2022-07-23T15:40:59;26.30;67.30
17066;DHT22;23120;52.336;21.182;2022-07-23T15:43:26;26.10;68.40